createdAt,value
2018-08-03T00:00:24.888Z,0.00
2018-08-03T00:01:24.846Z,0.00
2018-08-03T00:02:24.802Z,0.00
2018-08-03T00:03:24.764Z,0.00
2018-08-03T00:04:24.741Z,0.00
2018-08-03T00:05:24.681Z,0.00
2018-08-03T00:06:24.632Z,0.00
2018-08-03T00:07:24.586Z,0.00
2018-08-03T00:08:24.542Z,0.00
2018-08-03T00:09:24.524Z,0.00
2018-08-03T00:10:24.473Z,0.00
2018-08-03T00:11:24.412Z,0.00
2018-08-03T00:12:24.373Z,0.00
2018-08-03T00:13:24.344Z,0.00
2018-08-03T00:14:24.308Z,0.00
2018-08-03T00:15:24.240Z,0.00
2018-08-03T00:16:24.199Z,0.00
2018-08-03T00:17:24.153Z,0.00
2018-08-03T00:18:24.114Z,0.00
2018-08-03T00:19:24.093Z,0.00
2018-08-03T00:20:24.023Z,0.00
2018-08-03T00:21:23.997Z,0.00
2018-08-03T00:22:23.940Z,0.00
2018-08-03T00:23:23.894Z,0.00
2018-08-03T00:24:23.873Z,0.00
2018-08-03T00:25:23.812Z,0.00
2018-08-03T00:26:23.766Z,0.00
2018-08-03T00:27:23.724Z,0.00
2018-08-03T00:28:23.679Z,0.00
2018-08-03T00:29:23.680Z,0.00
2018-08-03T00:30:23.599Z,0.00
2018-08-03T00:31:23.550Z,0.00
2018-08-03T00:32:23.504Z,0.00
2018-08-03T00:33:23.460Z,0.00
2018-08-03T00:34:23.417Z,0.00
2018-08-03T00:35:23.396Z,0.00
2018-08-03T00:36:23.335Z,0.00
2018-08-03T00:37:23.286Z,0.00
2018-08-03T00:38:23.243Z,0.00
2018-08-03T00:39:23.206Z,0.00
2018-08-03T00:40:23.192Z,0.00
2018-08-03T00:41:23.120Z,0.00
2018-08-03T00:42:23.069Z,0.00
2018-08-03T00:43:23.028Z,0.00
2018-08-03T00:44:22.981Z,0.00
2018-08-03T00:45:22.963Z,0.00
2018-08-03T00:46:22.893Z,0.00
2018-08-03T00:47:22.855Z,0.00
2018-08-03T00:48:22.824Z,0.00
2018-08-03T00:49:22.763Z,0.00
2018-08-03T00:50:22.740Z,0.00
2018-08-03T00:51:22.678Z,0.00
2018-08-03T00:52:22.629Z,0.00
2018-08-03T00:53:22.586Z,0.00
2018-08-03T00:54:22.542Z,0.00
2018-08-03T00:55:22.523Z,0.00
2018-08-03T00:56:22.454Z,0.00
2018-08-03T00:57:22.412Z,0.00
2018-08-03T00:58:22.366Z,0.00
2018-08-03T00:59:22.322Z,0.00
2018-08-03T01:00:22.303Z,0.00
2018-08-03T01:01:22.234Z,0.00
2018-08-03T01:02:22.190Z,0.00
2018-08-03T01:03:22.146Z,0.00
2018-08-03T01:04:22.103Z,0.00
2018-08-03T01:05:22.089Z,0.00
2018-08-03T01:06:22.020Z,0.00
2018-08-03T01:07:21.972Z,0.00
2018-08-03T01:08:21.927Z,0.00
2018-08-03T01:09:21.883Z,0.00
2018-08-03T01:10:21.863Z,0.00
2018-08-03T01:11:21.795Z,0.00
2018-08-03T01:12:21.754Z,0.00
2018-08-03T01:13:21.710Z,0.00
2018-08-03T01:14:21.665Z,0.00
2018-08-03T01:15:21.646Z,0.00
2018-08-03T01:16:21.577Z,0.00
2018-08-03T01:17:21.529Z,0.00
2018-08-03T01:18:21.487Z,0.00
2018-08-03T01:19:21.441Z,0.00
2018-08-03T01:20:21.425Z,0.00
2018-08-03T01:21:21.352Z,0.00
2018-08-03T01:22:21.312Z,0.00
2018-08-03T01:23:21.276Z,0.00
2018-08-03T01:24:21.224Z,0.00
2018-08-03T01:25:21.207Z,0.00
2018-08-03T01:26:21.137Z,0.00
2018-08-03T01:27:21.091Z,0.00
2018-08-03T01:28:21.052Z,0.00
2018-08-03T01:29:21.023Z,0.00
2018-08-03T01:30:20.989Z,0.00
2018-08-03T01:31:20.913Z,0.00
2018-08-03T01:32:20.876Z,0.00
2018-08-03T01:33:20.825Z,0.00
2018-08-03T01:34:20.792Z,0.00
2018-08-03T01:35:20.764Z,0.00
2018-08-03T01:36:20.711Z,0.00
2018-08-03T01:37:20.653Z,0.00
2018-08-03T01:38:20.641Z,0.00
2018-08-03T01:39:20.561Z,0.00
2018-08-03T01:40:20.543Z,0.00
2018-08-03T01:41:20.474Z,0.00
2018-08-03T01:42:20.430Z,0.00
2018-08-03T01:43:20.383Z,0.00
2018-08-03T01:44:20.345Z,0.00
2018-08-03T01:45:20.327Z,0.00
2018-08-03T01:46:20.261Z,0.00
2018-08-03T01:47:20.209Z,0.00
2018-08-03T01:48:20.167Z,0.00
2018-08-03T01:49:20.124Z,0.00
2018-08-03T01:50:20.103Z,0.00
2018-08-03T01:51:20.034Z,0.00
2018-08-03T01:52:19.992Z,0.00
2018-08-03T01:53:19.951Z,0.00
2018-08-03T01:54:19.902Z,0.00
2018-08-03T01:55:19.886Z,0.00
2018-08-03T01:56:19.812Z,0.00
2018-08-03T01:57:19.765Z,0.00
2018-08-03T01:58:19.722Z,0.00
2018-08-03T01:59:19.682Z,0.00
2018-08-03T02:00:19.678Z,0.00
2018-08-03T02:01:19.588Z,0.00
2018-08-03T02:02:19.544Z,0.00
2018-08-03T02:03:19.525Z,0.00
2018-08-03T02:04:19.460Z,0.00
2018-08-03T02:05:19.411Z,0.00
2018-08-03T02:06:19.390Z,0.00
2018-08-03T02:07:19.323Z,0.00
2018-08-03T02:08:19.280Z,0.00
2018-08-03T02:09:19.234Z,0.00
2018-08-03T02:10:19.192Z,0.00
2018-08-03T02:11:19.171Z,0.00
2018-08-03T02:12:19.105Z,0.00
2018-08-03T02:13:19.055Z,0.00
2018-08-03T02:14:19.009Z,0.00
2018-08-03T02:15:18.973Z,0.00
2018-08-03T02:16:18.945Z,0.00
2018-08-03T02:17:18.879Z,0.00
2018-08-03T02:18:18.835Z,0.00
2018-08-03T02:19:18.791Z,0.00
2018-08-03T02:20:18.745Z,0.00
2018-08-03T02:21:18.732Z,0.00
2018-08-03T02:22:18.660Z,0.00
2018-08-03T02:23:18.612Z,0.00
2018-08-03T02:24:18.573Z,0.00
2018-08-03T02:25:18.523Z,0.00
2018-08-03T02:26:18.510Z,0.00
2018-08-03T02:27:18.435Z,0.00
2018-08-03T02:28:18.391Z,0.00
2018-08-03T02:29:18.355Z,0.00
2018-08-03T02:30:18.303Z,0.00
2018-08-03T02:31:18.288Z,0.00
2018-08-03T02:32:18.216Z,0.00
2018-08-03T02:33:18.182Z,0.00
2018-08-03T02:34:18.121Z,0.00
2018-08-03T02:35:18.081Z,0.00
2018-08-03T02:36:18.076Z,0.00
2018-08-03T02:37:17.989Z,0.00
2018-08-03T02:38:17.947Z,0.00
2018-08-03T02:39:17.900Z,0.00
2018-08-03T02:40:17.858Z,0.00
2018-08-03T02:41:17.851Z,0.00
2018-08-03T02:42:17.768Z,0.00
2018-08-03T02:43:17.724Z,0.00
2018-08-03T02:44:17.677Z,0.00
2018-08-03T02:45:17.633Z,0.00
2018-08-03T02:46:17.613Z,0.00
2018-08-03T02:47:17.549Z,0.00
2018-08-03T02:48:17.497Z,0.00
2018-08-03T02:49:17.468Z,0.00
2018-08-03T02:50:17.411Z,0.00
2018-08-03T02:51:17.393Z,0.00
2018-08-03T02:52:17.323Z,0.00
2018-08-03T02:53:17.277Z,0.00
2018-08-03T02:54:17.232Z,0.00
2018-08-03T02:55:17.196Z,0.00
2018-08-03T02:56:17.168Z,0.00
2018-08-03T02:57:17.096Z,0.00
2018-08-03T02:58:17.053Z,0.00
2018-08-03T02:59:17.006Z,0.00
2018-08-03T03:00:16.978Z,0.00
2018-08-03T03:01:16.940Z,0.00
2018-08-03T03:02:16.878Z,0.00
2018-08-03T03:03:16.828Z,0.00
2018-08-03T03:04:16.788Z,0.00
2018-08-03T03:05:16.741Z,0.00
2018-08-03T03:06:16.737Z,0.00
2018-08-03T03:07:16.679Z,0.00
2018-08-03T03:08:16.614Z,0.00
2018-08-03T03:09:16.561Z,0.00
2018-08-03T03:10:16.518Z,0.00
2018-08-03T03:11:16.496Z,0.00
2018-08-03T03:12:16.427Z,0.00
2018-08-03T03:13:16.380Z,0.00
2018-08-03T03:14:16.339Z,0.00
2018-08-03T03:15:16.292Z,0.00
2018-08-03T03:16:16.271Z,4.00
2018-08-03T03:17:16.202Z,4.00
2018-08-03T03:18:16.180Z,0.00
2018-08-03T03:19:16.117Z,0.00
2018-08-03T03:20:16.071Z,4.00
2018-08-03T03:21:16.048Z,0.00
2018-08-03T03:22:15.987Z,4.00
2018-08-03T03:23:15.934Z,4.00
2018-08-03T03:24:15.894Z,4.00
2018-08-03T03:25:15.844Z,8.00
2018-08-03T03:26:15.822Z,8.00
2018-08-03T03:27:15.759Z,8.00
2018-08-03T03:28:15.711Z,8.00
2018-08-03T03:29:15.664Z,12.00
2018-08-03T03:30:15.628Z,12.00
2018-08-03T03:31:15.604Z,12.00
2018-08-03T03:32:15.538Z,16.00
2018-08-03T03:33:15.486Z,12.00
2018-08-03T03:34:15.442Z,16.00
2018-08-03T03:35:15.398Z,20.00
2018-08-03T03:36:15.394Z,20.00
2018-08-03T03:37:15.306Z,24.00
2018-08-03T03:38:15.263Z,24.00
2018-08-03T03:39:15.216Z,28.00
2018-08-03T03:40:15.172Z,32.00
2018-08-03T03:41:15.130Z,36.00
2018-08-03T03:42:15.105Z,36.00
2018-08-03T03:43:15.040Z,40.00
2018-08-03T03:44:14.992Z,44.00
2018-08-03T03:45:14.946Z,52.00
2018-08-03T03:46:14.944Z,56.00
2018-08-03T03:47:14.885Z,60.00
2018-08-03T03:48:14.817Z,68.00
2018-08-03T03:49:14.767Z,72.00
2018-08-03T03:50:14.731Z,80.00
2018-08-03T03:51:14.680Z,84.00
2018-08-03T03:52:14.661Z,92.00
2018-08-03T03:53:14.590Z,96.00
2018-08-03T03:54:14.544Z,104.00
2018-08-03T03:55:14.502Z,112.00
2018-08-03T03:56:14.454Z,116.00
2018-08-03T03:57:14.431Z,124.00
2018-08-03T03:58:14.364Z,132.00
2018-08-03T03:59:14.374Z,144.00
2018-08-03T04:00:14.272Z,152.00
2018-08-03T04:01:14.231Z,164.00
2018-08-03T04:02:14.208Z,172.00
2018-08-03T04:03:14.139Z,180.00
2018-08-03T04:04:14.097Z,192.00
2018-08-03T04:05:14.050Z,204.00
2018-08-03T04:06:14.000Z,216.00
2018-08-03T04:07:13.982Z,224.00
2018-08-03T04:08:13.914Z,236.00
2018-08-03T04:09:13.874Z,248.00
2018-08-03T04:10:13.828Z,264.00
2018-08-03T04:11:13.781Z,272.00
2018-08-03T04:12:13.779Z,284.00
2018-08-03T04:13:13.692Z,304.00
2018-08-03T04:14:13.647Z,316.00
2018-08-03T04:15:13.601Z,328.00
2018-08-03T04:16:13.557Z,344.00
2018-08-03T04:17:13.536Z,372.00
2018-08-03T04:18:13.470Z,412.00
2018-08-03T04:19:13.429Z,452.00
2018-08-03T04:20:13.382Z,480.00
2018-08-03T04:21:13.334Z,520.00
2018-08-03T04:22:13.317Z,556.00
2018-08-03T04:23:13.241Z,592.00
2018-08-03T04:24:13.199Z,636.00
2018-08-03T04:25:13.149Z,680.00
2018-08-03T04:26:13.111Z,732.00
2018-08-03T04:27:13.086Z,784.00
2018-08-03T04:28:13.023Z,840.00
2018-08-03T04:29:12.978Z,876.00
2018-08-03T04:30:12.934Z,872.00
2018-08-03T04:31:12.885Z,832.00
2018-08-03T04:32:12.869Z,800.00
2018-08-03T04:33:12.797Z,800.00
2018-08-03T04:34:12.751Z,820.00
2018-08-03T04:35:12.706Z,836.00
2018-08-03T04:36:12.663Z,840.00
2018-08-03T04:37:12.643Z,820.00
2018-08-03T04:38:12.604Z,792.00
2018-08-03T04:39:12.536Z,776.00
2018-08-03T04:40:12.484Z,772.00
2018-08-03T04:41:12.444Z,780.00
2018-08-03T04:42:12.430Z,788.00
2018-08-03T04:43:12.352Z,800.00
2018-08-03T04:44:12.308Z,812.00
2018-08-03T04:45:12.261Z,820.00
2018-08-03T04:46:12.221Z,824.00
2018-08-03T04:47:12.196Z,832.00
2018-08-03T04:48:12.132Z,844.00
2018-08-03T04:49:12.084Z,856.00
2018-08-03T04:50:12.045Z,880.00
2018-08-03T04:51:11.996Z,900.00
2018-08-03T04:52:11.974Z,920.00
2018-08-03T04:53:11.905Z,936.00
2018-08-03T04:54:11.862Z,948.00
2018-08-03T04:55:11.818Z,960.00
2018-08-03T04:56:11.772Z,972.00
2018-08-03T04:57:11.752Z,996.00
2018-08-03T04:58:11.682Z,1032.00
2018-08-03T04:59:11.639Z,1092.00
2018-08-03T05:00:11.593Z,1180.00
2018-08-03T05:01:11.549Z,1288.00
2018-08-03T05:02:11.532Z,1440.00
2018-08-03T05:03:11.463Z,1688.00
2018-08-03T05:04:11.419Z,1968.00
2018-08-03T05:05:11.374Z,2268.00
2018-08-03T05:06:11.327Z,2572.00
2018-08-03T05:07:11.323Z,2896.00
2018-08-03T05:08:11.240Z,3156.00
2018-08-03T05:09:11.197Z,3300.00
2018-08-03T05:10:11.153Z,3372.00
2018-08-03T05:11:11.108Z,3440.00
2018-08-03T05:12:11.067Z,3504.00
2018-08-03T05:13:11.045Z,3556.00
2018-08-03T05:14:10.976Z,3608.00
2018-08-03T05:15:10.935Z,3672.00
2018-08-03T05:16:10.889Z,3724.00
2018-08-03T05:17:10.845Z,3784.00
2018-08-03T05:18:10.823Z,3848.00
2018-08-03T05:19:10.759Z,3904.00
2018-08-03T05:20:10.718Z,3952.00
2018-08-03T05:21:10.671Z,3992.00
2018-08-03T05:22:10.630Z,4040.00
2018-08-03T05:23:10.615Z,4092.00
2018-08-03T05:24:10.586Z,4140.00
2018-08-03T05:25:10.498Z,4192.00
2018-08-03T05:26:10.455Z,4228.00
2018-08-03T05:27:10.410Z,4272.00
2018-08-03T05:28:10.393Z,4312.00
2018-08-03T05:29:10.341Z,4360.00
2018-08-03T05:30:10.286Z,3928.00
2018-08-03T05:31:10.253Z,3644.00
2018-08-03T05:32:10.201Z,3672.00
2018-08-03T05:33:10.187Z,3716.00
2018-08-03T05:34:10.112Z,3752.00
2018-08-03T05:35:10.087Z,3776.00
2018-08-03T05:36:10.103Z,3804.00
2018-08-03T05:37:09.984Z,3836.00
2018-08-03T05:38:09.968Z,3872.00
2018-08-03T05:39:09.901Z,3912.00
2018-08-03T05:40:09.864Z,3948.00
2018-08-03T05:41:09.819Z,3976.00
2018-08-03T05:42:09.771Z,4004.00
2018-08-03T05:43:09.759Z,4028.00
2018-08-03T05:44:09.694Z,4056.00
2018-08-03T05:45:09.650Z,4092.00
2018-08-03T05:46:09.610Z,4120.00
2018-08-03T05:47:09.567Z,4152.00
2018-08-03T05:48:09.542Z,4176.00
2018-08-03T05:49:09.478Z,4188.00
2018-08-03T05:50:09.444Z,4204.00
2018-08-03T05:51:09.408Z,4224.00
2018-08-03T05:52:09.358Z,4240.00
2018-08-03T05:53:09.334Z,4264.00
2018-08-03T05:54:09.270Z,4264.00
2018-08-03T05:55:09.231Z,4288.00
2018-08-03T05:56:09.187Z,4308.00
2018-08-03T05:57:09.150Z,4204.00
2018-08-03T05:58:09.135Z,4232.00
2018-08-03T05:59:09.063Z,4240.00
2018-08-03T06:00:09.017Z,4280.00
2018-08-03T06:01:08.975Z,4304.00
2018-08-03T06:02:08.936Z,4336.00
2018-08-03T06:03:08.920Z,4352.00
2018-08-03T06:04:08.854Z,4372.00
2018-08-03T06:05:08.817Z,4392.00
2018-08-03T06:06:08.780Z,4408.00
2018-08-03T06:07:08.728Z,4424.00
2018-08-03T06:08:08.745Z,4436.00
2018-08-03T06:09:08.659Z,4448.00
2018-08-03T06:10:08.611Z,4468.00
2018-08-03T06:11:08.567Z,4468.00
2018-08-03T06:12:08.528Z,4472.00
2018-08-03T06:13:08.521Z,4488.00
2018-08-03T06:14:08.444Z,4500.00
2018-08-03T06:15:08.411Z,4508.00
2018-08-03T06:16:08.368Z,4508.00
2018-08-03T06:17:08.334Z,4524.00
2018-08-03T06:18:08.326Z,4528.00
2018-08-03T06:19:08.239Z,4548.00
2018-08-03T06:20:08.198Z,4548.00
2018-08-03T06:21:08.158Z,4552.00
2018-08-03T06:22:08.124Z,4556.00
2018-08-03T06:23:08.075Z,4552.00
2018-08-03T06:24:08.077Z,4552.00
2018-08-03T06:25:08.020Z,4556.00
2018-08-03T06:26:07.980Z,4560.00
2018-08-03T06:27:07.924Z,4556.00
2018-08-03T06:28:07.880Z,4568.00
2018-08-03T06:29:07.860Z,5408.00
2018-08-03T06:30:07.801Z,5404.00
2018-08-03T06:31:07.757Z,5412.00
2018-08-03T06:32:07.730Z,5404.00
2018-08-03T06:33:07.671Z,5400.00
2018-08-03T06:34:07.653Z,5400.00
2018-08-03T06:35:07.596Z,5420.00
2018-08-03T06:36:07.549Z,5412.00
2018-08-03T06:37:07.516Z,5408.00
2018-08-03T06:38:07.518Z,5408.00
2018-08-03T06:39:07.455Z,5420.00
2018-08-03T06:40:07.396Z,5416.00
2018-08-03T06:41:07.352Z,5420.00
2018-08-03T06:42:07.311Z,5412.00
2018-08-03T06:43:07.270Z,5404.00
2018-08-03T06:44:07.284Z,5396.00
2018-08-03T06:45:07.188Z,5384.00
2018-08-03T06:46:07.152Z,5384.00
2018-08-03T06:47:07.109Z,5372.00
2018-08-03T06:48:07.072Z,5364.00
2018-08-03T06:49:07.054Z,5340.00
2018-08-03T06:50:06.992Z,5340.00
2018-08-03T06:51:06.952Z,5352.00
2018-08-03T06:52:06.911Z,5336.00
2018-08-03T06:53:06.870Z,5324.00
2018-08-03T06:54:07.035Z,5336.00
2018-08-03T06:55:06.797Z,5312.00
2018-08-03T06:56:06.752Z,5296.00
2018-08-03T06:57:06.715Z,5288.00
2018-08-03T06:58:06.676Z,5264.00
2018-08-03T06:59:06.649Z,5244.00
2018-08-03T07:00:06.619Z,5224.00
2018-08-03T07:01:06.569Z,5204.00
2018-08-03T07:02:06.513Z,5200.00
2018-08-03T07:03:06.495Z,5200.00
2018-08-03T07:04:06.487Z,5196.00
2018-08-03T07:05:06.421Z,5192.00
2018-08-03T07:06:06.361Z,5184.00
2018-08-03T07:07:06.320Z,5172.00
2018-08-03T07:08:06.281Z,5168.00
2018-08-03T07:09:06.242Z,5160.00
2018-08-03T07:10:06.226Z,5152.00
2018-08-03T07:11:06.162Z,5140.00
2018-08-03T07:12:06.125Z,5112.00
2018-08-03T07:13:06.080Z,5088.00
2018-08-03T07:14:06.047Z,5076.00
2018-08-03T07:15:06.028Z,5068.00
2018-08-03T07:16:05.965Z,5072.00
2018-08-03T07:17:05.927Z,5064.00
2018-08-03T07:18:05.888Z,5068.00
2018-08-03T07:19:05.849Z,5020.00
2018-08-03T07:20:05.912Z,5000.00
2018-08-03T07:21:05.770Z,4988.00
2018-08-03T07:22:05.734Z,4936.00
2018-08-03T07:23:05.694Z,4888.00
2018-08-03T07:24:05.653Z,4848.00
2018-08-03T07:25:05.640Z,4840.00
2018-08-03T07:26:05.577Z,4812.00
2018-08-03T07:27:05.588Z,4780.00
2018-08-03T07:28:05.500Z,4756.00
2018-08-03T07:29:05.463Z,4744.00
2018-08-03T07:30:05.441Z,4756.00
2018-08-03T07:31:05.381Z,4724.00
2018-08-03T07:32:05.346Z,4704.00
2018-08-03T07:33:05.314Z,4672.00
2018-08-03T07:34:05.265Z,4620.00
2018-08-03T07:35:05.249Z,4604.00
2018-08-03T07:36:05.193Z,4584.00
2018-08-03T07:37:05.148Z,4560.00
2018-08-03T07:38:05.111Z,4516.00
2018-08-03T07:39:05.073Z,4480.00
2018-08-03T07:40:05.079Z,4452.00
2018-08-03T07:41:04.993Z,4440.00
2018-08-03T07:42:05.102Z,4428.00
2018-08-03T07:43:04.974Z,4404.00
2018-08-03T07:44:04.878Z,4384.00
2018-08-03T07:45:04.906Z,4352.00
2018-08-03T07:46:04.797Z,4328.00
2018-08-03T07:47:04.764Z,4308.00
2018-08-03T07:48:04.722Z,4260.00
2018-08-03T07:49:04.686Z,4232.00
2018-08-03T07:50:04.649Z,4208.00
2018-08-03T07:51:04.639Z,4180.00
2018-08-03T07:52:04.574Z,4164.00
2018-08-03T07:53:04.529Z,4136.00
2018-08-03T07:54:04.497Z,4112.00
2018-08-03T07:55:04.459Z,4096.00
2018-08-03T07:56:04.443Z,4060.00
2018-08-03T07:57:04.383Z,4024.00
2018-08-03T07:58:04.341Z,3996.00
2018-08-03T07:59:04.303Z,3952.00
2018-08-03T08:00:04.262Z,3936.00
2018-08-03T08:01:04.252Z,3916.00
2018-08-03T08:02:04.191Z,3916.00
2018-08-03T08:03:04.151Z,3884.00
2018-08-03T08:04:04.117Z,3864.00
2018-08-03T08:05:04.073Z,3824.00
2018-08-03T08:06:04.065Z,3792.00
2018-08-03T08:07:03.996Z,3760.00
2018-08-03T08:08:03.956Z,3728.00
2018-08-03T08:09:03.921Z,3728.00
2018-08-03T08:10:03.885Z,3668.00
2018-08-03T08:11:03.869Z,3636.00
2018-08-03T08:12:03.808Z,3616.00
2018-08-03T08:13:03.771Z,3600.00
2018-08-03T08:14:03.734Z,3552.00
2018-08-03T08:15:03.699Z,3508.00
2018-08-03T08:16:03.692Z,3468.00
2018-08-03T08:17:03.669Z,3428.00
2018-08-03T08:18:03.576Z,3380.00
2018-08-03T08:19:03.541Z,3328.00
2018-08-03T08:20:03.501Z,3304.00
2018-08-03T08:21:03.466Z,3276.00
2018-08-03T08:22:03.447Z,3244.00
2018-08-03T08:23:03.387Z,3232.00
2018-08-03T08:24:03.357Z,3172.00
2018-08-03T08:25:03.310Z,3136.00
2018-08-03T08:26:03.287Z,3108.00
2018-08-03T08:27:03.257Z,3084.00
2018-08-03T08:28:03.200Z,3056.00
2018-08-03T08:29:03.172Z,3036.00
2018-08-03T08:30:03.122Z,3016.00
2018-08-03T08:31:03.083Z,3028.00
2018-08-03T08:32:03.072Z,2996.00
2018-08-03T08:33:03.011Z,3008.00
2018-08-03T08:34:02.970Z,2988.00
2018-08-03T08:35:02.938Z,2972.00
2018-08-03T08:36:02.896Z,2980.00
2018-08-03T08:37:02.929Z,2960.00
2018-08-03T08:38:02.822Z,2956.00
2018-08-03T08:39:02.799Z,2976.00
2018-08-03T08:40:02.737Z,2960.00
2018-08-03T08:41:02.702Z,2952.00
2018-08-03T08:42:02.685Z,2964.00
2018-08-03T08:43:02.624Z,2968.00
2018-08-03T08:44:02.589Z,2968.00
2018-08-03T08:45:02.549Z,3004.00
2018-08-03T08:46:02.510Z,2988.00
2018-08-03T08:47:02.506Z,2952.00
2018-08-03T08:48:02.436Z,2948.00
2018-08-03T08:49:02.452Z,2948.00
2018-08-03T08:50:02.363Z,2964.00
2018-08-03T08:51:02.321Z,2968.00
2018-08-03T08:52:02.306Z,2972.00
2018-08-03T08:53:02.260Z,2972.00
2018-08-03T08:54:02.210Z,3000.00
2018-08-03T08:55:02.171Z,2976.00
2018-08-03T08:56:02.129Z,2972.00
2018-08-03T08:57:02.116Z,3012.00
2018-08-03T08:58:02.061Z,2964.00
2018-08-03T08:59:02.019Z,2980.00
2018-08-03T09:00:01.985Z,2960.00
2018-08-03T09:01:02.040Z,2964.00
2018-08-03T09:02:01.935Z,2968.00
2018-08-03T09:03:01.870Z,2952.00
2018-08-03T09:04:01.836Z,2964.00
2018-08-03T09:05:01.792Z,2968.00
2018-08-03T09:06:01.761Z,2984.00
2018-08-03T09:07:01.741Z,2988.00
2018-08-03T09:08:01.680Z,2980.00
2018-08-03T09:09:01.643Z,2992.00
2018-08-03T09:10:01.605Z,3012.00
2018-08-03T09:11:01.568Z,3004.00
2018-08-03T09:12:01.556Z,3000.00
2018-08-03T09:13:01.538Z,2996.00
2018-08-03T09:14:01.452Z,3000.00
2018-08-03T09:15:01.417Z,3008.00
2018-08-03T09:16:01.382Z,2988.00
2018-08-03T09:17:01.362Z,2992.00
2018-08-03T09:18:01.303Z,3044.00
2018-08-03T09:19:01.269Z,3008.00
2018-08-03T09:20:01.234Z,2972.00
2018-08-03T09:21:01.189Z,3028.00
2018-08-03T09:22:01.221Z,3016.00
2018-08-03T09:23:01.118Z,3024.00
2018-08-03T09:24:01.076Z,3028.00
2018-08-03T09:25:01.046Z,3036.00
2018-08-03T09:26:01.004Z,3040.00
2018-08-03T09:27:01.003Z,3060.00
2018-08-03T09:28:00.930Z,3080.00
2018-08-03T09:29:00.906Z,3084.00
2018-08-03T09:30:00.852Z,3100.00
2018-08-03T09:31:00.827Z,3100.00
2018-08-03T09:32:00.774Z,3100.00
2018-08-03T09:33:00.763Z,3108.00
2018-08-03T09:34:00.700Z,3116.00
2018-08-03T09:35:00.667Z,3112.00
2018-08-03T09:36:00.627Z,3112.00
2018-08-03T09:37:00.591Z,3052.00
2018-08-03T09:38:00.573Z,3120.00
2018-08-03T09:39:00.560Z,3088.00
2018-08-03T09:40:00.479Z,3120.00
2018-08-03T09:41:00.435Z,3140.00
2018-08-03T09:42:00.396Z,3160.00
2018-08-03T09:43:00.422Z,3168.00
2018-08-03T09:44:00.322Z,3176.00
2018-08-03T09:45:00.286Z,3228.00
2018-08-03T09:46:00.246Z,3284.00
2018-08-03T09:47:00.212Z,3276.00
2018-08-03T09:48:00.197Z,3260.00
2018-08-03T09:49:00.134Z,3212.00
2018-08-03T09:50:00.100Z,2552.00
2018-08-03T09:51:00.064Z,2388.00
2018-08-03T09:52:00.023Z,2540.00
2018-08-03T09:53:00.013Z,2428.00
2018-08-03T09:53:59.949Z,2392.00
2018-08-03T09:54:59.913Z,2360.00
2018-08-03T09:55:59.876Z,2352.00
2018-08-03T09:56:59.838Z,2492.00
2018-08-03T09:57:59.821Z,2540.00
2018-08-03T09:58:59.765Z,2548.00
2018-08-03T09:59:59.797Z,2516.00
2018-08-03T10:01:02.967Z,2512.00
2018-08-03T10:01:59.733Z,3268.00
2018-08-03T10:02:59.639Z,3452.00
2018-08-03T10:03:59.581Z,3508.00
2018-08-03T10:04:59.537Z,3556.00
2018-08-03T10:05:59.498Z,3484.00
2018-08-03T10:06:59.462Z,3200.00
2018-08-03T10:08:00.223Z,3216.00
2018-08-03T10:08:59.388Z,2544.00
2018-08-03T10:09:59.351Z,2440.00
2018-08-03T10:10:59.314Z,2348.00
2018-08-03T10:11:59.276Z,3044.00
2018-08-03T10:12:59.272Z,3160.00
2018-08-03T10:13:59.204Z,3336.00
2018-08-03T10:14:59.161Z,3468.00
2018-08-03T10:15:59.128Z,3668.00
2018-08-03T10:16:59.084Z,3420.00
2018-08-03T10:17:59.051Z,2512.00
2018-08-03T10:18:59.038Z,2408.00
2018-08-03T10:19:58.980Z,2184.00
2018-08-03T10:20:58.941Z,2924.00
2018-08-03T10:21:58.900Z,2964.00
2018-08-03T10:22:58.861Z,3124.00
2018-08-03T10:23:58.848Z,2760.00
2018-08-03T10:24:58.784Z,3416.00
2018-08-03T10:25:58.748Z,3728.00
2018-08-03T10:26:58.710Z,3912.00
2018-08-03T10:27:58.679Z,4628.00
2018-08-03T10:28:58.660Z,4288.00
2018-08-03T10:29:58.599Z,3820.00
2018-08-03T10:30:58.564Z,3704.00
2018-08-03T10:31:58.529Z,3524.00
2018-08-03T10:32:58.483Z,3460.00
2018-08-03T10:33:58.473Z,3516.00
2018-08-03T10:34:58.416Z,3672.00
2018-08-03T10:35:58.377Z,3900.00
2018-08-03T10:36:58.336Z,3924.00
2018-08-03T10:37:58.295Z,3592.00
2018-08-03T10:38:58.278Z,3488.00
2018-08-03T10:39:58.222Z,3432.00
2018-08-03T10:41:05.876Z,3420.00
2018-08-03T10:41:58.143Z,3408.00
2018-08-03T10:42:58.119Z,3496.00
2018-08-03T10:43:58.093Z,3528.00
2018-08-03T10:44:58.030Z,3540.00
2018-08-03T10:45:57.995Z,3520.00
2018-08-03T10:46:57.958Z,3468.00
2018-08-03T10:47:57.918Z,3380.00
2018-08-03T10:48:57.921Z,3368.00
2018-08-03T10:49:57.844Z,3352.00
2018-08-03T10:50:57.805Z,3280.00
2018-08-03T10:51:57.769Z,3272.00
2018-08-03T10:52:57.729Z,3256.00
2018-08-03T10:53:57.692Z,2912.00
2018-08-03T10:54:57.698Z,2616.00
2018-08-03T10:55:57.616Z,3096.00
2018-08-03T10:56:57.578Z,3520.00
2018-08-03T10:57:57.545Z,3504.00
2018-08-03T10:58:57.511Z,3484.00
2018-08-03T10:59:57.492Z,3292.00
2018-08-03T11:00:57.429Z,3340.00
2018-08-03T11:01:57.391Z,3304.00
2018-08-03T11:02:57.356Z,3616.00
2018-08-03T11:03:57.314Z,4108.00
2018-08-03T11:04:57.307Z,3984.00
2018-08-03T11:05:57.240Z,3788.00
2018-08-03T11:06:57.203Z,3564.00
2018-08-03T11:07:57.169Z,3472.00
2018-08-03T11:08:57.134Z,3348.00
2018-08-03T11:09:57.113Z,3252.00
2018-08-03T11:10:57.053Z,3248.00
2018-08-03T11:11:57.017Z,3416.00
2018-08-03T11:12:56.976Z,3632.00
2018-08-03T11:13:57.010Z,3796.00
2018-08-03T11:14:56.925Z,3972.00
2018-08-03T11:15:56.866Z,4068.00
2018-08-03T11:16:56.827Z,4452.00
2018-08-03T11:17:56.803Z,5016.00
2018-08-03T11:18:56.752Z,4140.00
2018-08-03T11:19:56.739Z,3560.00
2018-08-03T11:20:56.675Z,3364.00
2018-08-03T11:21:56.641Z,3372.00
2018-08-03T11:22:56.614Z,3352.00
2018-08-03T11:23:56.567Z,3408.00
2018-08-03T11:24:56.575Z,3676.00
2018-08-03T11:25:56.489Z,3788.00
2018-08-03T11:26:56.454Z,3756.00
2018-08-03T11:27:56.416Z,3656.00
2018-08-03T11:28:56.377Z,3516.00
2018-08-03T11:29:56.365Z,3408.00
2018-08-03T11:30:56.308Z,3364.00
2018-08-03T11:31:56.266Z,3360.00
2018-08-03T11:32:56.227Z,3364.00
2018-08-03T11:33:56.196Z,3396.00
2018-08-03T11:34:56.179Z,3516.00
2018-08-03T11:35:56.119Z,3560.00
2018-08-03T11:36:56.081Z,3568.00
2018-08-03T11:37:56.047Z,3576.00
2018-08-03T11:38:56.009Z,3808.00
2018-08-03T11:39:55.992Z,4204.00
2018-08-03T11:40:56.013Z,4448.00
2018-08-03T11:41:55.893Z,4532.00
2018-08-03T11:42:55.857Z,4496.00
2018-08-03T11:43:55.820Z,4888.00
2018-08-03T11:44:55.821Z,4740.00
2018-08-03T11:45:55.748Z,4892.00
2018-08-03T11:46:55.710Z,4964.00
2018-08-03T11:47:55.672Z,4480.00
2018-08-03T11:48:55.632Z,4096.00
2018-08-03T11:49:55.594Z,4180.00
2018-08-03T11:50:55.585Z,4212.00
2018-08-03T11:51:55.523Z,3936.00
2018-08-03T11:52:55.483Z,3856.00
2018-08-03T11:53:55.496Z,3520.00
2018-08-03T11:54:55.409Z,3268.00
2018-08-03T11:55:55.394Z,3348.00
2018-08-03T11:56:55.333Z,3576.00
2018-08-03T11:57:55.295Z,3404.00
2018-08-03T11:58:55.262Z,3596.00
2018-08-03T11:59:55.227Z,3804.00
2018-08-03T12:00:55.284Z,3696.00
2018-08-03T12:01:55.217Z,3632.00
2018-08-03T12:02:55.109Z,3592.00
2018-08-03T12:03:55.075Z,3576.00
2018-08-03T12:04:55.040Z,3508.00
2018-08-03T12:05:55.027Z,3444.00
2018-08-03T12:06:54.964Z,3400.00
2018-08-03T12:07:54.927Z,3328.00
2018-08-03T12:08:54.886Z,3292.00
2018-08-03T12:09:54.849Z,3368.00
2018-08-03T12:10:54.832Z,3892.00
2018-08-03T12:11:54.779Z,4400.00
2018-08-03T12:12:54.743Z,4832.00
2018-08-03T12:13:54.702Z,4672.00
2018-08-03T12:14:54.663Z,4364.00
2018-08-03T12:15:54.656Z,4468.00
2018-08-03T12:16:54.587Z,4412.00
2018-08-03T12:17:54.601Z,4388.00
2018-08-03T12:18:54.515Z,3940.00
2018-08-03T12:19:54.480Z,3728.00
2018-08-03T12:20:54.462Z,3596.00
2018-08-03T12:21:54.404Z,3468.00
2018-08-03T12:22:54.367Z,3756.00
2018-08-03T12:23:54.373Z,3996.00
2018-08-03T12:24:54.297Z,4020.00
2018-08-03T12:25:54.274Z,3896.00
2018-08-03T12:26:54.218Z,3720.00
2018-08-03T12:27:54.178Z,3688.00